sensor_id;sensor_type;location;lat;lon;timestamp;P1;durP1;ratioP1;P2;durP2;ratioP2
52798;SDS011;38667;42.872;74.622;2023-04-03T00:00:23;64.17;;;26.40;;
52798;SDS011;38667;42.872;74.622;2023-04-03T00:02:49;81.17;;;27.60;;
52798;SDS011;38667;42.872;74.622;2023-04-03T00:05:16;75.37;;;25.63;;
52798;SDS011;38667;42.872;74.622;2023-04-03T00:07:42;78.20;;;24.37;;
52798;SDS011;38667;42.872;74.622;2023-04-03T00:10:11;61.17;;;22.57;;
52798;SDS011;38667;42.872;74.622;2023-04-03T00:12:38;68.37;;;23.90;;
52798;SDS011;38667;42.872;74.622;2023-04-03T00:15:04;63.77;;;23.17;;
52798;SDS011;38667;42.872;74.622;2023-04-03T00:17:31;62.20;;;21.60;;
52798;SDS011;38667;42.872;74.622;2023-04-03T00:19:57;60.40;;;21.23;;
52798;SDS011;38667;42.872;74.622;2023-04-03T00:22:24;69.80;;;24.67;;
52798;SDS011;38667;42.872;74.622;2023-04-03T00:24:50;59.73;;;22.43;;
52798;SDS011;38667;42.872;74.622;2023-04-03T00:27:18;52.53;;;22.27;;
52798;SDS011;38667;42.872;74.622;2023-04-03T00:29:44;58.70;;;21.60;;
52798;SDS011;38667;42.872;74.622;2023-04-03T00:32:11;51.23;;;22.07;;
52798;SDS011;38667;42.872;74.622;2023-04-03T00:34:37;57.97;;;21.70;;
52798;SDS011;38667;42.872;74.622;2023-04-03T00:37:03;60.70;;;21.43;;
52798;SDS011;38667;42.872;74.622;2023-04-03T00:39:29;61.03;;;19.93;;
52798;SDS011;38667;42.872;74.622;2023-04-03T00:41:56;54.33;;;20.03;;
52798;SDS011;38667;42.872;74.622;2023-04-03T00:47:23;46.93;;;16.10;;
52798;SDS011;38667;42.872;74.622;2023-04-03T00:49:50;49.00;;;17.00;;
52798;SDS011;38667;42.872;74.622;2023-04-03T00:52:19;39.97;;;15.43;;
52798;SDS011;38667;42.872;74.622;2023-04-03T00:54:48;36.43;;;16.07;;
52798;SDS011;38667;42.872;74.622;2023-04-03T00:57:17;36.57;;;14.00;;
52798;SDS011;38667;42.872;74.622;2023-04-03T00:59:44;34.83;;;13.77;;
52798;SDS011;38667;42.872;74.622;2023-04-03T01:02:15;31.17;;;12.50;;
52798;SDS011;38667;42.872;74.622;2023-04-03T01:04:43;39.23;;;12.77;;
52798;SDS011;38667;42.872;74.622;2023-04-03T01:07:10;38.23;;;11.17;;
52798;SDS011;38667;42.872;74.622;2023-04-03T01:09:39;39.87;;;10.00;;
52798;SDS011;38667;42.872;74.622;2023-04-03T01:12:13;39.63;;;9.70;;
52798;SDS011;38667;42.872;74.622;2023-04-03T01:14:40;44.57;;;9.53;;
52798;SDS011;38667;42.872;74.622;2023-04-03T01:17:21;27.23;;;8.90;;
52798;SDS011;38667;42.872;74.622;2023-04-03T01:19:56;42.73;;;9.50;;
52798;SDS011;38667;42.872;74.622;2023-04-03T01:22:39;67.40;;;15.97;;
52798;SDS011;38667;42.872;74.622;2023-04-03T01:25:13;243.43;;;29.40;;
52798;SDS011;38667;42.872;74.622;2023-04-03T01:27:40;213.10;;;29.43;;
52798;SDS011;38667;42.872;74.622;2023-04-03T01:30:06;49.67;;;19.77;;
52798;SDS011;38667;42.872;74.622;2023-04-03T01:32:35;61.20;;;19.97;;
52798;SDS011;38667;42.872;74.622;2023-04-03T01:35:01;55.67;;;18.50;;
52798;SDS011;38667;42.872;74.622;2023-04-03T01:37:28;77.10;;;21.27;;
52798;SDS011;38667;42.872;74.622;2023-04-03T01:39:54;62.37;;;21.60;;
52798;SDS011;38667;42.872;74.622;2023-04-03T01:42:20;61.20;;;20.90;;
52798;SDS011;38667;42.872;74.622;2023-04-03T01:44:47;55.53;;;19.50;;
52798;SDS011;38667;42.872;74.622;2023-04-03T01:47:13;55.33;;;18.37;;
52798;SDS011;38667;42.872;74.622;2023-04-03T01:49:41;51.67;;;17.07;;
52798;SDS011;38667;42.872;74.622;2023-04-03T01:52:07;47.40;;;17.10;;
52798;SDS011;38667;42.872;74.622;2023-04-03T01:54:34;51.40;;;16.43;;
52798;SDS011;38667;42.872;74.622;2023-04-03T01:57:00;26.30;;;12.63;;
52798;SDS011;38667;42.872;74.622;2023-04-03T01:59:26;34.90;;;10.30;;
52798;SDS011;38667;42.872;74.622;2023-04-03T02:04:48;35.43;;;12.43;;
52798;SDS011;38667;42.872;74.622;2023-04-03T02:07:39;50.33;;;16.93;;
52798;SDS011;38667;42.872;74.622;2023-04-03T02:10:06;48.60;;;18.20;;
52798;SDS011;38667;42.872;74.622;2023-04-03T02:12:33;48.93;;;18.37;;
52798;SDS011;38667;42.872;74.622;2023-04-03T02:14:59;52.57;;;16.27;;
52798;SDS011;38667;42.872;74.622;2023-04-03T02:17:25;45.93;;;16.93;;
52798;SDS011;38667;42.872;74.622;2023-04-03T02:19:52;53.57;;;17.23;;
52798;SDS011;38667;42.872;74.622;2023-04-03T02:22:18;45.63;;;18.57;;
52798;SDS011;38667;42.872;74.622;2023-04-03T02:24:46;50.63;;;17.40;;
52798;SDS011;38667;42.872;74.622;2023-04-03T02:27:12;48.73;;;16.67;;
52798;SDS011;38667;42.872;74.622;2023-04-03T02:29:39;42.17;;;16.10;;
52798;SDS011;38667;42.872;74.622;2023-04-03T02:32:05;46.47;;;17.33;;
52798;SDS011;38667;42.872;74.622;2023-04-03T02:34:31;48.93;;;16.47;;
52798;SDS011;38667;42.872;74.622;2023-04-03T02:36:58;46.38;;;12.65;;
52798;SDS011;38667;42.872;74.622;2023-04-03T02:39:24;33.30;;;10.50;;
52798;SDS011;38667;42.872;74.622;2023-04-03T02:41:52;39.10;;;12.63;;
52798;SDS011;38667;42.872;74.622;2023-04-03T02:44:18;38.77;;;11.17;;
52798;SDS011;38667;42.872;74.622;2023-04-03T02:46:45;36.95;;;10.93;;
52798;SDS011;38667;42.872;74.622;2023-04-03T02:49:11;35.97;;;10.25;;
52798;SDS011;38667;42.872;74.622;2023-04-03T02:51:37;42.63;;;17.17;;
52798;SDS011;38667;42.872;74.622;2023-04-03T02:54:03;33.38;;;14.13;;
52798;SDS011;38667;42.872;74.622;2023-04-03T02:56:30;33.63;;;12.73;;
52798;SDS011;38667;42.872;74.622;2023-04-03T02:58:58;24.77;;;10.30;;
52798;SDS011;38667;42.872;74.622;2023-04-03T03:01:24;27.58;;;9.98;;
52798;SDS011;38667;42.872;74.622;2023-04-03T03:03:51;34.58;;;9.90;;
52798;SDS011;38667;42.872;74.622;2023-04-03T03:06:17;27.58;;;9.25;;
52798;SDS011;38667;42.872;74.622;2023-04-03T03:08:44;27.85;;;9.10;;
52798;SDS011;38667;42.872;74.622;2023-04-03T03:11:10;33.97;;;11.02;;
52798;SDS011;38667;42.872;74.622;2023-04-03T03:13:37;30.63;;;10.82;;
52798;SDS011;38667;42.872;74.622;2023-04-03T03:16:05;23.00;;;9.95;;
52798;SDS011;38667;42.872;74.622;2023-04-03T03:18:32;21.98;;;9.20;;
52798;SDS011;38667;42.872;74.622;2023-04-03T03:20:59;24.45;;;9.70;;
52798;SDS011;38667;42.872;74.622;2023-04-03T03:23:27;27.67;;;9.32;;
52798;SDS011;38667;42.872;74.622;2023-04-03T03:25:55;34.42;;;8.60;;
52798;SDS011;38667;42.872;74.622;2023-04-03T03:28:21;23.45;;;8.27;;
52798;SDS011;38667;42.872;74.622;2023-04-03T03:30:48;26.48;;;8.93;;
52798;SDS011;38667;42.872;74.622;2023-04-03T03:33:15;24.25;;;8.02;;
52798;SDS011;38667;42.872;74.622;2023-04-03T03:35:42;23.08;;;7.05;;
52798;SDS011;38667;42.872;74.622;2023-04-03T03:38:08;20.83;;;6.10;;
52798;SDS011;38667;42.872;74.622;2023-04-03T03:40:35;31.38;;;6.88;;
52798;SDS011;38667;42.872;74.622;2023-04-03T03:43:01;17.05;;;5.43;;
52798;SDS011;38667;42.872;74.622;2023-04-03T03:45:27;36.88;;;6.00;;
52798;SDS011;38667;42.872;74.622;2023-04-03T03:47:54;37.13;;;5.85;;
52798;SDS011;38667;42.872;74.622;2023-04-03T03:50:22;41.83;;;4.75;;
52798;SDS011;38667;42.872;74.622;2023-04-03T03:52:48;52.67;;;5.97;;
52798;SDS011;38667;42.872;74.622;2023-04-03T03:55:15;32.17;;;4.32;;
52798;SDS011;38667;42.872;74.622;2023-04-03T03:57:41;46.00;;;4.55;;
52798;SDS011;38667;42.872;74.622;2023-04-03T04:00:08;39.67;;;4.40;;
52798;SDS011;38667;42.872;74.622;2023-04-03T04:02:35;65.38;;;4.57;;
52798;SDS011;38667;42.872;74.622;2023-04-03T04:05:01;33.65;;;4.65;;
52798;SDS011;38667;42.872;74.622;2023-04-03T04:07:29;43.38;;;3.78;;
52798;SDS011;38667;42.872;74.622;2023-04-03T04:09:55;49.83;;;4.25;;
52798;SDS011;38667;42.872;74.622;2023-04-03T04:12:22;41.17;;;3.83;;
52798;SDS011;38667;42.872;74.622;2023-04-03T04:14:48;38.70;;;3.03;;
52798;SDS011;38667;42.872;74.622;2023-04-03T04:17:14;45.38;;;3.60;;
52798;SDS011;38667;42.872;74.622;2023-04-03T04:19:41;23.20;;;2.67;;
52798;SDS011;38667;42.872;74.622;2023-04-03T04:22:07;40.72;;;3.25;;
52798;SDS011;38667;42.872;74.622;2023-04-03T04:24:35;26.90;;;2.50;;
52798;SDS011;38667;42.872;74.622;2023-04-03T04:27:01;40.17;;;3.90;;
52798;SDS011;38667;42.872;74.622;2023-04-03T04:29:28;30.08;;;2.47;;
52798;SDS011;38667;42.872;74.622;2023-04-03T04:31:54;39.60;;;3.03;;
52798;SDS011;38667;42.872;74.622;2023-04-03T04:34:20;31.52;;;2.92;;
52798;SDS011;38667;42.872;74.622;2023-04-03T04:36:47;22.45;;;2.50;;
52798;SDS011;38667;42.872;74.622;2023-04-03T04:39:13;21.85;;;2.75;;
52798;SDS011;38667;42.872;74.622;2023-04-03T04:41:41;23.00;;;3.55;;
52798;SDS011;38667;42.872;74.622;2023-04-03T04:44:07;20.10;;;4.10;;
52798;SDS011;38667;42.872;74.622;2023-04-03T04:46:34;14.57;;;3.50;;
52798;SDS011;38667;42.872;74.622;2023-04-03T04:49:00;14.65;;;3.30;;
52798;SDS011;38667;42.872;74.622;2023-04-03T04:51:26;26.20;;;3.88;;
52798;SDS011;38667;42.872;74.622;2023-04-03T04:53:52;16.17;;;3.95;;
52798;SDS011;38667;42.872;74.622;2023-04-03T04:56:19;20.40;;;3.95;;
52798;SDS011;38667;42.872;74.622;2023-04-03T04:58:47;29.02;;;3.30;;
52798;SDS011;38667;42.872;74.622;2023-04-03T05:01:13;14.68;;;3.85;;
52798;SDS011;38667;42.872;74.622;2023-04-03T05:03:39;22.73;;;4.05;;
52798;SDS011;38667;42.872;74.622;2023-04-03T05:06:06;19.02;;;3.90;;
52798;SDS011;38667;42.872;74.622;2023-04-03T05:08:32;20.30;;;3.53;;
52798;SDS011;38667;42.872;74.622;2023-04-03T05:10:59;13.43;;;3.30;;
52798;SDS011;38667;42.872;74.622;2023-04-03T05:13:25;10.95;;;3.03;;
52798;SDS011;38667;42.872;74.622;2023-04-03T05:15:53;15.55;;;3.20;;
52798;SDS011;38667;42.872;74.622;2023-04-03T05:18:19;22.92;;;4.07;;
52798;SDS011;38667;42.872;74.622;2023-04-03T05:20:47;25.15;;;4.00;;
52798;SDS011;38667;42.872;74.622;2023-04-03T05:23:14;32.70;;;2.35;;
52798;SDS011;38667;42.872;74.622;2023-04-03T05:25:40;36.67;;;4.15;;
52798;SDS011;38667;42.872;74.622;2023-04-03T05:28:07;20.08;;;2.60;;
52798;SDS011;38667;42.872;74.622;2023-04-03T05:30:33;18.45;;;2.08;;
52798;SDS011;38667;42.872;74.622;2023-04-03T05:33:01;36.35;;;7.22;;
52798;SDS011;38667;42.872;74.622;2023-04-03T05:35:27;73.90;;;8.30;;
52798;SDS011;38667;42.872;74.622;2023-04-03T05:37:54;22.88;;;3.40;;
52798;SDS011;38667;42.872;74.622;2023-04-03T05:40:20;11.77;;;2.20;;
52798;SDS011;38667;42.872;74.622;2023-04-03T05:42:46;23.27;;;2.15;;
52798;SDS011;38667;42.872;74.622;2023-04-03T05:45:13;24.27;;;2.00;;
52798;SDS011;38667;42.872;74.622;2023-04-03T05:47:39;13.43;;;2.28;;
52798;SDS011;38667;42.872;74.622;2023-04-03T05:50:07;19.88;;;2.53;;
52798;SDS011;38667;42.872;74.622;2023-04-03T05:52:35;35.95;;;5.18;;
52798;SDS011;38667;42.872;74.622;2023-04-03T05:55:03;31.63;;;5.95;;
52798;SDS011;38667;42.872;74.622;2023-04-03T05:57:30;26.77;;;4.45;;
52798;SDS011;38667;42.872;74.622;2023-04-03T05:59:56;33.38;;;2.67;;
52798;SDS011;38667;42.872;74.622;2023-04-03T06:02:23;22.23;;;2.92;;
52798;SDS011;38667;42.872;74.622;2023-04-03T06:04:50;29.75;;;3.40;;
52798;SDS011;38667;42.872;74.622;2023-04-03T06:07:19;38.80;;;4.00;;
52798;SDS011;38667;42.872;74.622;2023-04-03T06:09:45;18.25;;;2.20;;
52798;SDS011;38667;42.872;74.622;2023-04-03T06:12:12;10.35;;;2.10;;
52798;SDS011;38667;42.872;74.622;2023-04-03T06:14:39;31.75;;;3.20;;
52798;SDS011;38667;42.872;74.622;2023-04-03T06:17:05;10.10;;;2.25;;
52798;SDS011;38667;42.872;74.622;2023-04-03T06:19:32;14.15;;;2.00;;
52798;SDS011;38667;42.872;74.622;2023-04-03T06:21:58;14.18;;;1.70;;
52798;SDS011;38667;42.872;74.622;2023-04-03T06:24:26;16.58;;;2.00;;
52798;SDS011;38667;42.872;74.622;2023-04-03T06:26:53;16.20;;;1.67;;
52798;SDS011;38667;42.872;74.622;2023-04-03T06:29:20;17.85;;;2.72;;
52798;SDS011;38667;42.872;74.622;2023-04-03T06:31:47;65.00;;;11.65;;
52798;SDS011;38667;42.872;74.622;2023-04-03T06:34:13;43.67;;;5.18;;
52798;SDS011;38667;42.872;74.622;2023-04-03T06:36:39;22.83;;;2.80;;
52798;SDS011;38667;42.872;74.622;2023-04-03T06:39:06;25.67;;;2.88;;
52798;SDS011;38667;42.872;74.622;2023-04-03T06:41:35;39.95;;;4.55;;
52798;SDS011;38667;42.872;74.622;2023-04-03T06:44:01;26.42;;;4.55;;
52798;SDS011;38667;42.872;74.622;2023-04-03T06:46:28;14.07;;;2.38;;
52798;SDS011;38667;42.872;74.622;2023-04-03T06:48:54;40.95;;;4.50;;
52798;SDS011;38667;42.872;74.622;2023-04-03T06:51:21;11.95;;;1.85;;
52798;SDS011;38667;42.872;74.622;2023-04-03T06:53:49;19.15;;;2.42;;
52798;SDS011;38667;42.872;74.622;2023-04-03T06:56:17;15.30;;;2.33;;
52798;SDS011;38667;42.872;74.622;2023-04-03T06:58:46;8.93;;;1.98;;
52798;SDS011;38667;42.872;74.622;2023-04-03T07:01:13;22.40;;;2.90;;
52798;SDS011;38667;42.872;74.622;2023-04-03T07:03:40;15.95;;;2.22;;
52798;SDS011;38667;42.872;74.622;2023-04-03T07:06:07;39.33;;;6.45;;
52798;SDS011;38667;42.872;74.622;2023-04-03T07:08:36;99.15;;;21.65;;
52798;SDS011;38667;42.872;74.622;2023-04-03T07:11:03;71.20;;;15.88;;
52798;SDS011;38667;42.872;74.622;2023-04-03T07:13:29;55.58;;;12.05;;
52798;SDS011;38667;42.872;74.622;2023-04-03T07:15:58;25.17;;;5.68;;
52798;SDS011;38667;42.872;74.622;2023-04-03T07:18:24;10.30;;;2.92;;
52798;SDS011;38667;42.872;74.622;2023-04-03T07:20:51;11.70;;;2.47;;
52798;SDS011;38667;42.872;74.622;2023-04-03T07:23:17;69.22;;;12.93;;
52798;SDS011;38667;42.872;74.622;2023-04-03T07:25:44;20.48;;;5.20;;
52798;SDS011;38667;42.872;74.622;2023-04-03T07:28:11;18.75;;;3.10;;
52798;SDS011;38667;42.872;74.622;2023-04-03T07:30:42;45.38;;;5.18;;
52798;SDS011;38667;42.872;74.622;2023-04-03T07:33:10;44.75;;;7.18;;
52798;SDS011;38667;42.872;74.622;2023-04-03T07:35:37;16.55;;;3.45;;
52798;SDS011;38667;42.872;74.622;2023-04-03T07:38:03;11.48;;;3.55;;
52798;SDS011;38667;42.872;74.622;2023-04-03T07:40:30;12.55;;;2.38;;
52798;SDS011;38667;42.872;74.622;2023-04-03T07:42:56;13.35;;;2.80;;
52798;SDS011;38667;42.872;74.622;2023-04-03T07:45:22;16.52;;;2.40;;
52798;SDS011;38667;42.872;74.622;2023-04-03T07:47:49;15.32;;;2.10;;
52798;SDS011;38667;42.872;74.622;2023-04-03T07:50:17;10.13;;;1.88;;
52798;SDS011;38667;42.872;74.622;2023-04-03T07:52:44;24.02;;;3.40;;
52798;SDS011;38667;42.872;74.622;2023-04-03T07:55:10;29.75;;;3.75;;
52798;SDS011;38667;42.872;74.622;2023-04-03T07:57:37;17.92;;;2.55;;
52798;SDS011;38667;42.872;74.622;2023-04-03T08:00:03;18.55;;;2.80;;
52798;SDS011;38667;42.872;74.622;2023-04-03T08:02:30;28.02;;;2.85;;
52798;SDS011;38667;42.872;74.622;2023-04-03T08:04:57;24.63;;;3.05;;
52798;SDS011;38667;42.872;74.622;2023-04-03T08:07:25;28.08;;;2.90;;
52798;SDS011;38667;42.872;74.622;2023-04-03T08:09:51;29.30;;;5.80;;
52798;SDS011;38667;42.872;74.622;2023-04-03T08:12:18;46.88;;;4.43;;
52798;SDS011;38667;42.872;74.622;2023-04-03T08:14:44;15.80;;;2.53;;
52798;SDS011;38667;42.872;74.622;2023-04-03T08:17:11;19.35;;;3.08;;
52798;SDS011;38667;42.872;74.622;2023-04-03T08:19:37;15.32;;;2.50;;
52798;SDS011;38667;42.872;74.622;2023-04-03T08:22:03;37.78;;;4.05;;
52798;SDS011;38667;42.872;74.622;2023-04-03T08:24:31;17.77;;;2.90;;
52798;SDS011;38667;42.872;74.622;2023-04-03T08:26:58;26.08;;;3.33;;
52798;SDS011;38667;42.872;74.622;2023-04-03T08:29:25;25.23;;;2.30;;
52798;SDS011;38667;42.872;74.622;2023-04-03T08:31:51;48.90;;;3.45;;
52798;SDS011;38667;42.872;74.622;2023-04-03T08:34:18;28.98;;;2.80;;
52798;SDS011;38667;42.872;74.622;2023-04-03T08:36:45;23.98;;;2.65;;
52798;SDS011;38667;42.872;74.622;2023-04-03T08:39:12;29.48;;;3.85;;
52798;SDS011;38667;42.872;74.622;2023-04-03T08:41:41;25.25;;;2.88;;
52798;SDS011;38667;42.872;74.622;2023-04-03T08:44:11;21.50;;;4.32;;
52798;SDS011;38667;42.872;74.622;2023-04-03T08:46:44;56.55;;;5.93;;
52798;SDS011;38667;42.872;74.622;2023-04-03T08:49:22;17.45;;;2.95;;
52798;SDS011;38667;42.872;74.622;2023-04-03T08:51:53;47.58;;;7.80;;
52798;SDS011;38667;42.872;74.622;2023-04-03T08:54:23;38.85;;;4.85;;
52798;SDS011;38667;42.872;74.622;2023-04-03T08:56:54;30.30;;;5.00;;
52798;SDS011;38667;42.872;74.622;2023-04-03T08:59:23;24.30;;;3.85;;
52798;SDS011;38667;42.872;74.622;2023-04-03T09:01:53;64.47;;;8.43;;
52798;SDS011;38667;42.872;74.622;2023-04-03T09:04:21;31.50;;;3.72;;
52798;SDS011;38667;42.872;74.622;2023-04-03T09:06:49;45.05;;;6.45;;
52798;SDS011;38667;42.872;74.622;2023-04-03T09:09:21;92.75;;;10.43;;
52798;SDS011;38667;42.872;74.622;2023-04-03T09:11:59;55.55;;;12.38;;
52798;SDS011;38667;42.872;74.622;2023-04-03T09:14:31;63.10;;;8.68;;
52798;SDS011;38667;42.872;74.622;2023-04-03T09:17:02;61.28;;;14.13;;
52798;SDS011;38667;42.872;74.622;2023-04-03T09:19:36;51.08;;;9.23;;
52798;SDS011;38667;42.872;74.622;2023-04-03T09:22:11;75.95;;;8.88;;
52798;SDS011;38667;42.872;74.622;2023-04-03T09:24:42;39.13;;;4.05;;
52798;SDS011;38667;42.872;74.622;2023-04-03T09:27:12;50.67;;;5.88;;
52798;SDS011;38667;42.872;74.622;2023-04-03T09:29:39;26.35;;;2.90;;
52798;SDS011;38667;42.872;74.622;2023-04-03T09:32:11;25.30;;;3.70;;
52798;SDS011;38667;42.872;74.622;2023-04-03T09:34:44;52.20;;;6.22;;
52798;SDS011;38667;42.872;74.622;2023-04-03T09:37:12;48.05;;;4.63;;
52798;SDS011;38667;42.872;74.622;2023-04-03T09:40:00;46.30;;;5.78;;
52798;SDS011;38667;42.872;74.622;2023-04-03T09:42:28;46.05;;;7.15;;
52798;SDS011;38667;42.872;74.622;2023-04-03T09:44:57;51.83;;;5.18;;
52798;SDS011;38667;42.872;74.622;2023-04-03T09:47:26;65.15;;;8.45;;
52798;SDS011;38667;42.872;74.622;2023-04-03T09:50:08;41.20;;;5.00;;
52798;SDS011;38667;42.872;74.622;2023-04-03T09:52:45;30.38;;;3.38;;
52798;SDS011;38667;42.872;74.622;2023-04-03T09:55:14;22.70;;;2.88;;
52798;SDS011;38667;42.872;74.622;2023-04-03T09:57:43;34.45;;;3.97;;
52798;SDS011;38667;42.872;74.622;2023-04-03T10:00:19;53.67;;;6.50;;
52798;SDS011;38667;42.872;74.622;2023-04-03T10:02:49;67.70;;;9.13;;
52798;SDS011;38667;42.872;74.622;2023-04-03T10:05:32;32.15;;;5.95;;
52798;SDS011;38667;42.872;74.622;2023-04-03T10:08:09;23.17;;;3.45;;
52798;SDS011;38667;42.872;74.622;2023-04-03T10:10:45;31.08;;;6.13;;
52798;SDS011;38667;42.872;74.622;2023-04-03T10:13:17;23.80;;;3.60;;
52798;SDS011;38667;42.872;74.622;2023-04-03T10:15:45;22.20;;;2.67;;
52798;SDS011;38667;42.872;74.622;2023-04-03T10:18:24;40.80;;;4.15;;
52798;SDS011;38667;42.872;74.622;2023-04-03T10:20:57;29.83;;;2.95;;
52798;SDS011;38667;42.872;74.622;2023-04-03T10:23:31;44.67;;;6.72;;
52798;SDS011;38667;42.872;74.622;2023-04-03T10:26:06;22.13;;;4.82;;
52798;SDS011;38667;42.872;74.622;2023-04-03T10:28:40;44.13;;;6.25;;
52798;SDS011;38667;42.872;74.622;2023-04-03T10:31:16;39.83;;;6.63;;
52798;SDS011;38667;42.872;74.622;2023-04-03T10:33:53;31.45;;;4.00;;
52798;SDS011;38667;42.872;74.622;2023-04-03T10:36:29;36.30;;;4.22;;
52798;SDS011;38667;42.872;74.622;2023-04-03T10:39:06;56.50;;;5.15;;
52798;SDS011;38667;42.872;74.622;2023-04-03T10:41:51;31.85;;;4.78;;
52798;SDS011;38667;42.872;74.622;2023-04-03T10:44:29;45.03;;;7.10;;
52798;SDS011;38667;42.872;74.622;2023-04-03T10:47:02;67.78;;;7.65;;
52798;SDS011;38667;42.872;74.622;2023-04-03T10:49:39;66.80;;;6.05;;
52798;SDS011;38667;42.872;74.622;2023-04-03T10:52:17;59.50;;;5.63;;
52798;SDS011;38667;42.872;74.622;2023-04-03T10:54:52;60.83;;;5.22;;
52798;SDS011;38667;42.872;74.622;2023-04-03T10:57:27;58.30;;;6.35;;
52798;SDS011;38667;42.872;74.622;2023-04-03T10:59:57;63.05;;;6.78;;
52798;SDS011;38667;42.872;74.622;2023-04-03T11:02:27;44.92;;;4.50;;
52798;SDS011;38667;42.872;74.622;2023-04-03T11:04:56;39.22;;;4.43;;
52798;SDS011;38667;42.872;74.622;2023-04-03T11:07:26;57.42;;;6.63;;
52798;SDS011;38667;42.872;74.622;2023-04-03T11:09:58;39.95;;;5.78;;
52798;SDS011;38667;42.872;74.622;2023-04-03T11:12:28;64.95;;;6.05;;
52798;SDS011;38667;42.872;74.622;2023-04-03T11:15:03;79.65;;;9.85;;
52798;SDS011;38667;42.872;74.622;2023-04-03T11:17:32;76.40;;;10.43;;
52798;SDS011;38667;42.872;74.622;2023-04-03T11:20:04;35.65;;;4.95;;
52798;SDS011;38667;42.872;74.622;2023-04-03T11:22:36;35.83;;;6.25;;
52798;SDS011;38667;42.872;74.622;2023-04-03T11:25:13;50.97;;;5.50;;
52798;SDS011;38667;42.872;74.622;2023-04-03T11:27:43;55.97;;;5.90;;
52798;SDS011;38667;42.872;74.622;2023-04-03T11:30:15;75.22;;;6.40;;
52798;SDS011;38667;42.872;74.622;2023-04-03T11:35:45;87.90;;;9.05;;
52798;SDS011;38667;42.872;74.622;2023-04-03T11:38:17;71.75;;;7.80;;
52798;SDS011;38667;42.872;74.622;2023-04-03T11:40:47;60.40;;;5.32;;
52798;SDS011;38667;42.872;74.622;2023-04-03T11:43:21;55.03;;;6.20;;
52798;SDS011;38667;42.872;74.622;2023-04-03T11:45:51;43.17;;;6.45;;
52798;SDS011;38667;42.872;74.622;2023-04-03T11:57:14;30.33;;;3.78;;
52798;SDS011;38667;42.872;74.622;2023-04-03T12:03:31;21.20;;;3.17;;
52798;SDS011;38667;42.872;74.622;2023-04-03T12:09:25;20.83;;;2.67;;
52798;SDS011;38667;42.872;74.622;2023-04-03T12:12:36;27.73;;;3.25;;
52798;SDS011;38667;42.872;74.622;2023-04-03T12:15:21;34.08;;;3.78;;
52798;SDS011;38667;42.872;74.622;2023-04-03T12:21:05;17.08;;;3.10;;
52798;SDS011;38667;42.872;74.622;2023-04-03T12:23:32;33.28;;;4.43;;
52798;SDS011;38667;42.872;74.622;2023-04-03T12:26:00;32.67;;;4.50;;
52798;SDS011;38667;42.872;74.622;2023-04-03T12:28:45;44.75;;;6.97;;
52798;SDS011;38667;42.872;74.622;2023-04-03T12:31:12;29.75;;;4.20;;
52798;SDS011;38667;42.872;74.622;2023-04-03T12:33:44;36.70;;;5.13;;
52798;SDS011;38667;42.872;74.622;2023-04-03T12:36:34;24.33;;;4.55;;
52798;SDS011;38667;42.872;74.622;2023-04-03T12:39:20;28.67;;;4.20;;
52798;SDS011;38667;42.872;74.622;2023-04-03T12:42:03;30.60;;;3.95;;
52798;SDS011;38667;42.872;74.622;2023-04-03T12:44:46;32.33;;;4.35;;
52798;SDS011;38667;42.872;74.622;2023-04-03T12:47:23;29.45;;;4.25;;
52798;SDS011;38667;42.872;74.622;2023-04-03T12:49:54;24.15;;;3.38;;
52798;SDS011;38667;42.872;74.622;2023-04-03T12:52:24;26.83;;;3.90;;
52798;SDS011;38667;42.872;74.622;2023-04-03T12:54:59;40.38;;;5.22;;
52798;SDS011;38667;42.872;74.622;2023-04-03T12:57:26;32.63;;;4.07;;
52798;SDS011;38667;42.872;74.622;2023-04-03T13:00:02;29.40;;;5.10;;
52798;SDS011;38667;42.872;74.622;2023-04-03T13:02:45;41.97;;;6.18;;
52798;SDS011;38667;42.872;74.622;2023-04-03T13:05:13;24.85;;;3.90;;
52798;SDS011;38667;42.872;74.622;2023-04-03T13:07:42;33.13;;;5.95;;
52798;SDS011;38667;42.872;74.622;2023-04-03T13:10:14;32.63;;;6.20;;
52798;SDS011;38667;42.872;74.622;2023-04-03T13:12:51;35.08;;;9.52;;
52798;SDS011;38667;42.872;74.622;2023-04-03T13:15:20;27.83;;;6.68;;
52798;SDS011;38667;42.872;74.622;2023-04-03T13:17:48;27.65;;;5.18;;
52798;SDS011;38667;42.872;74.622;2023-04-03T13:20:16;26.35;;;4.78;;
52798;SDS011;38667;42.872;74.622;2023-04-03T13:22:48;28.15;;;5.05;;
52798;SDS011;38667;42.872;74.622;2023-04-03T13:25:18;30.83;;;4.90;;
52798;SDS011;38667;42.872;74.622;2023-04-03T13:27:46;24.52;;;4.68;;
52798;SDS011;38667;42.872;74.622;2023-04-03T13:30:20;32.38;;;6.85;;
52798;SDS011;38667;42.872;74.622;2023-04-03T13:32:50;26.02;;;5.63;;
52798;SDS011;38667;42.872;74.622;2023-04-03T13:35:27;31.15;;;6.25;;
52798;SDS011;38667;42.872;74.622;2023-04-03T13:37:56;13.23;;;5.35;;
52798;SDS011;38667;42.872;74.622;2023-04-03T13:40:24;24.95;;;6.25;;
52798;SDS011;38667;42.872;74.622;2023-04-03T13:42:58;49.72;;;7.82;;
52798;SDS011;38667;42.872;74.622;2023-04-03T13:45:28;65.75;;;8.40;;
52798;SDS011;38667;42.872;74.622;2023-04-03T13:48:06;97.80;;;10.00;;
52798;SDS011;38667;42.872;74.622;2023-04-03T13:50:41;96.00;;;9.50;;
52798;SDS011;38667;42.872;74.622;2023-04-03T13:53:18;89.35;;;11.18;;
52798;SDS011;38667;42.872;74.622;2023-04-03T13:55:52;95.32;;;10.48;;
52798;SDS011;38667;42.872;74.622;2023-04-03T13:58:22;61.97;;;8.50;;
52798;SDS011;38667;42.872;74.622;2023-04-03T14:00:52;53.83;;;9.55;;
52798;SDS011;38667;42.872;74.622;2023-04-03T14:03:20;47.05;;;8.25;;
52798;SDS011;38667;42.872;74.622;2023-04-03T14:05:48;50.22;;;8.40;;
52798;SDS011;38667;42.872;74.622;2023-04-03T14:08:15;50.60;;;10.73;;
52798;SDS011;38667;42.872;74.622;2023-04-03T14:10:41;26.73;;;8.60;;
52798;SDS011;38667;42.872;74.622;2023-04-03T14:13:09;21.23;;;7.88;;
52798;SDS011;38667;42.872;74.622;2023-04-03T14:15:37;23.73;;;6.20;;
52798;SDS011;38667;42.872;74.622;2023-04-03T14:18:05;14.02;;;5.38;;
52798;SDS011;38667;42.872;74.622;2023-04-03T14:20:31;15.88;;;5.85;;
52798;SDS011;38667;42.872;74.622;2023-04-03T14:22:57;17.40;;;4.28;;
52798;SDS011;38667;42.872;74.622;2023-04-03T14:25:24;17.83;;;5.07;;
52798;SDS011;38667;42.872;74.622;2023-04-03T14:27:50;14.65;;;4.65;;
52798;SDS011;38667;42.872;74.622;2023-04-03T14:30:18;26.88;;;6.13;;
52798;SDS011;38667;42.872;74.622;2023-04-03T14:32:46;44.53;;;8.65;;
52798;SDS011;38667;42.872;74.622;2023-04-03T14:35:14;61.42;;;7.82;;
52798;SDS011;38667;42.872;74.622;2023-04-03T14:37:41;41.05;;;7.43;;
52798;SDS011;38667;42.872;74.622;2023-04-03T14:40:08;30.23;;;6.43;;
52798;SDS011;38667;42.872;74.622;2023-04-03T14:42:37;17.65;;;5.25;;
52798;SDS011;38667;42.872;74.622;2023-04-03T14:45:05;34.97;;;5.82;;
52798;SDS011;38667;42.872;74.622;2023-04-03T14:47:35;35.88;;;5.68;;
52798;SDS011;38667;42.872;74.622;2023-04-03T14:50:06;28.42;;;5.82;;
52798;SDS011;38667;42.872;74.622;2023-04-03T14:52:38;24.35;;;5.50;;
52798;SDS011;38667;42.872;74.622;2023-04-03T14:55:05;29.50;;;6.13;;
52798;SDS011;38667;42.872;74.622;2023-04-03T14:57:32;33.72;;;5.53;;